sensor_id;sensor_type;location;lat;lon;timestamp;P1;durP1;ratioP1;P2;durP2;ratioP2
49678;SDS011;35570;48.218;16.326;2024-02-15T00:00:20;4.97;;;3.42;;
49678;SDS011;35570;48.218;16.326;2024-02-15T00:02:47;5.63;;;3.53;;
49678;SDS011;35570;48.218;16.326;2024-02-15T00:05:13;4.28;;;2.83;;
49678;SDS011;35570;48.218;16.326;2024-02-15T00:07:42;5.93;;;3.13;;
49678;SDS011;35570;48.218;16.326;2024-02-15T00:10:09;6.07;;;3.63;;
49678;SDS011;35570;48.218;16.326;2024-02-15T00:12:34;4.18;;;3.58;;
49678;SDS011;35570;48.218;16.326;2024-02-15T00:15:00;4.82;;;3.03;;
49678;SDS011;35570;48.218;16.326;2024-02-15T00:17:27;4.63;;;2.50;;
49678;SDS011;35570;48.218;16.326;2024-02-15T00:19:54;4.93;;;3.00;;
49678;SDS011;35570;48.218;16.326;2024-02-15T00:22:20;5.45;;;3.05;;
49678;SDS011;35570;48.218;16.326;2024-02-15T00:24:46;6.03;;;3.53;;
49678;SDS011;35570;48.218;16.326;2024-02-15T00:27:14;5.43;;;3.42;;
49678;SDS011;35570;48.218;16.326;2024-02-15T00:29:40;7.57;;;4.28;;
49678;SDS011;35570;48.218;16.326;2024-02-15T00:32:06;5.30;;;3.45;;
49678;SDS011;35570;48.218;16.326;2024-02-15T00:34:32;5.07;;;3.53;;
49678;SDS011;35570;48.218;16.326;2024-02-15T00:36:58;5.70;;;3.70;;
49678;SDS011;35570;48.218;16.326;2024-02-15T00:39:24;9.05;;;5.40;;
49678;SDS011;35570;48.218;16.326;2024-02-15T00:41:50;6.20;;;4.00;;
49678;SDS011;35570;48.218;16.326;2024-02-15T00:44:15;4.97;;;3.03;;
49678;SDS011;35570;48.218;16.326;2024-02-15T00:46:42;5.00;;;2.55;;
49678;SDS011;35570;48.218;16.326;2024-02-15T00:49:09;3.58;;;2.30;;
49678;SDS011;35570;48.218;16.326;2024-02-15T00:51:36;3.50;;;1.83;;
49678;SDS011;35570;48.218;16.326;2024-02-15T00:54:01;3.42;;;1.88;;
49678;SDS011;35570;48.218;16.326;2024-02-15T00:56:28;3.60;;;1.73;;
49678;SDS011;35570;48.218;16.326;2024-02-15T00:58:56;3.85;;;1.70;;
49678;SDS011;35570;48.218;16.326;2024-02-15T01:01:21;2.65;;;1.80;;
49678;SDS011;35570;48.218;16.326;2024-02-15T01:03:47;3.35;;;2.00;;
49678;SDS011;35570;48.218;16.326;2024-02-15T01:06:13;2.97;;;2.22;;
49678;SDS011;35570;48.218;16.326;2024-02-15T01:08:39;2.95;;;1.88;;
49678;SDS011;35570;48.218;16.326;2024-02-15T01:11:04;2.55;;;1.92;;
49678;SDS011;35570;48.218;16.326;2024-02-15T01:13:31;3.38;;;2.30;;
49678;SDS011;35570;48.218;16.326;2024-02-15T01:15:56;4.13;;;2.13;;
49678;SDS011;35570;48.218;16.326;2024-02-15T01:18:22;4.47;;;2.35;;
49678;SDS011;35570;48.218;16.326;2024-02-15T01:20:48;4.15;;;2.50;;
49678;SDS011;35570;48.218;16.326;2024-02-15T01:23:14;3.13;;;2.05;;
49678;SDS011;35570;48.218;16.326;2024-02-15T01:25:40;6.78;;;2.88;;
49678;SDS011;35570;48.218;16.326;2024-02-15T01:28:06;4.60;;;2.85;;
49678;SDS011;35570;48.218;16.326;2024-02-15T01:30:32;4.70;;;2.28;;
49678;SDS011;35570;48.218;16.326;2024-02-15T01:32:58;3.85;;;2.17;;
49678;SDS011;35570;48.218;16.326;2024-02-15T01:35:23;3.28;;;2.30;;
49678;SDS011;35570;48.218;16.326;2024-02-15T01:37:50;3.78;;;2.22;;
49678;SDS011;35570;48.218;16.326;2024-02-15T01:40:16;4.40;;;2.28;;
49678;SDS011;35570;48.218;16.326;2024-02-15T01:42:42;3.03;;;2.10;;
49678;SDS011;35570;48.218;16.326;2024-02-15T01:45:09;3.83;;;2.17;;
49678;SDS011;35570;48.218;16.326;2024-02-15T01:47:36;3.20;;;2.00;;
49678;SDS011;35570;48.218;16.326;2024-02-15T01:50:05;3.05;;;1.90;;
49678;SDS011;35570;48.218;16.326;2024-02-15T01:52:32;2.65;;;1.90;;
49678;SDS011;35570;48.218;16.326;2024-02-15T01:54:58;3.58;;;1.80;;
49678;SDS011;35570;48.218;16.326;2024-02-15T01:57:34;4.78;;;2.10;;
49678;SDS011;35570;48.218;16.326;2024-02-15T02:00:01;3.25;;;1.75;;
49678;SDS011;35570;48.218;16.326;2024-02-15T02:02:28;3.20;;;2.30;;
49678;SDS011;35570;48.218;16.326;2024-02-15T02:04:57;4.18;;;2.17;;
49678;SDS011;35570;48.218;16.326;2024-02-15T02:07:23;6.05;;;2.95;;
49678;SDS011;35570;48.218;16.326;2024-02-15T02:09:49;3.10;;;2.20;;
49678;SDS011;35570;48.218;16.326;2024-02-15T02:12:14;4.13;;;2.00;;
49678;SDS011;35570;48.218;16.326;2024-02-15T02:14:41;3.22;;;2.13;;
49678;SDS011;35570;48.218;16.326;2024-02-15T02:17:10;4.32;;;2.58;;
49678;SDS011;35570;48.218;16.326;2024-02-15T02:19:39;4.32;;;2.33;;
49678;SDS011;35570;48.218;16.326;2024-02-15T02:22:05;5.68;;;2.60;;
49678;SDS011;35570;48.218;16.326;2024-02-15T02:24:34;5.05;;;2.38;;
49678;SDS011;35570;48.218;16.326;2024-02-15T02:27:05;3.58;;;2.28;;
49678;SDS011;35570;48.218;16.326;2024-02-15T02:29:33;5.22;;;2.55;;
49678;SDS011;35570;48.218;16.326;2024-02-15T02:31:59;3.03;;;2.25;;
49678;SDS011;35570;48.218;16.326;2024-02-15T02:34:25;3.13;;;1.83;;
49678;SDS011;35570;48.218;16.326;2024-02-15T02:36:50;3.58;;;2.13;;
49678;SDS011;35570;48.218;16.326;2024-02-15T02:39:16;3.83;;;2.25;;
49678;SDS011;35570;48.218;16.326;2024-02-15T02:41:42;3.20;;;2.03;;
49678;SDS011;35570;48.218;16.326;2024-02-15T02:44:08;4.47;;;2.78;;
49678;SDS011;35570;48.218;16.326;2024-02-15T02:46:34;5.40;;;2.75;;
49678;SDS011;35570;48.218;16.326;2024-02-15T02:48:59;4.80;;;3.03;;
49678;SDS011;35570;48.218;16.326;2024-02-15T02:51:25;4.90;;;2.85;;
49678;SDS011;35570;48.218;16.326;2024-02-15T02:53:51;6.10;;;2.90;;
49678;SDS011;35570;48.218;16.326;2024-02-15T02:56:16;3.45;;;2.47;;
49678;SDS011;35570;48.218;16.326;2024-02-15T02:58:43;2.95;;;1.77;;
49678;SDS011;35570;48.218;16.326;2024-02-15T03:01:09;4.82;;;2.45;;
49678;SDS011;35570;48.218;16.326;2024-02-15T03:03:36;4.75;;;2.30;;
49678;SDS011;35570;48.218;16.326;2024-02-15T03:06:03;3.88;;;1.90;;
49678;SDS011;35570;48.218;16.326;2024-02-15T03:08:29;4.50;;;2.00;;
49678;SDS011;35570;48.218;16.326;2024-02-15T03:10:55;3.00;;;2.17;;
49678;SDS011;35570;48.218;16.326;2024-02-15T03:13:21;4.22;;;2.03;;
49678;SDS011;35570;48.218;16.326;2024-02-15T03:15:48;3.40;;;1.75;;
49678;SDS011;35570;48.218;16.326;2024-02-15T03:18:17;3.75;;;1.55;;
49678;SDS011;35570;48.218;16.326;2024-02-15T03:20:42;4.05;;;1.70;;
49678;SDS011;35570;48.218;16.326;2024-02-15T03:23:08;3.55;;;1.70;;
49678;SDS011;35570;48.218;16.326;2024-02-15T03:25:34;2.72;;;1.83;;
49678;SDS011;35570;48.218;16.326;2024-02-15T03:28:00;3.03;;;1.98;;
49678;SDS011;35570;48.218;16.326;2024-02-15T03:30:29;4.47;;;1.80;;
49678;SDS011;35570;48.218;16.326;2024-02-15T03:32:56;2.65;;;1.80;;
49678;SDS011;35570;48.218;16.326;2024-02-15T03:35:24;4.15;;;1.88;;
49678;SDS011;35570;48.218;16.326;2024-02-15T03:37:51;3.28;;;1.67;;
49678;SDS011;35570;48.218;16.326;2024-02-15T03:40:21;3.30;;;1.90;;
49678;SDS011;35570;48.218;16.326;2024-02-15T03:42:48;2.83;;;1.38;;
49678;SDS011;35570;48.218;16.326;2024-02-15T03:45:15;4.28;;;1.73;;
49678;SDS011;35570;48.218;16.326;2024-02-15T03:47:41;3.45;;;1.77;;
49678;SDS011;35570;48.218;16.326;2024-02-15T03:50:07;3.15;;;1.70;;
49678;SDS011;35570;48.218;16.326;2024-02-15T03:52:37;3.50;;;1.70;;
49678;SDS011;35570;48.218;16.326;2024-02-15T03:55:03;2.72;;;1.60;;
49678;SDS011;35570;48.218;16.326;2024-02-15T03:57:31;3.83;;;1.80;;
49678;SDS011;35570;48.218;16.326;2024-02-15T03:59:58;3.28;;;1.75;;
49678;SDS011;35570;48.218;16.326;2024-02-15T04:02:25;3.65;;;2.08;;
49678;SDS011;35570;48.218;16.326;2024-02-15T04:04:55;2.88;;;1.88;;
49678;SDS011;35570;48.218;16.326;2024-02-15T04:07:22;3.88;;;1.88;;
49678;SDS011;35570;48.218;16.326;2024-02-15T04:09:51;3.70;;;1.88;;
49678;SDS011;35570;48.218;16.326;2024-02-15T04:12:17;4.15;;;2.03;;
49678;SDS011;35570;48.218;16.326;2024-02-15T04:14:43;3.83;;;2.13;;
49678;SDS011;35570;48.218;16.326;2024-02-15T04:17:12;4.13;;;2.00;;
49678;SDS011;35570;48.218;16.326;2024-02-15T04:19:46;6.03;;;2.25;;
49678;SDS011;35570;48.218;16.326;2024-02-15T04:22:13;3.88;;;2.47;;
49678;SDS011;35570;48.218;16.326;2024-02-15T04:24:41;3.03;;;2.10;;
49678;SDS011;35570;48.218;16.326;2024-02-15T04:27:10;3.67;;;2.05;;
49678;SDS011;35570;48.218;16.326;2024-02-15T04:29:39;2.95;;;1.83;;
49678;SDS011;35570;48.218;16.326;2024-02-15T04:32:09;4.72;;;2.20;;
49678;SDS011;35570;48.218;16.326;2024-02-15T04:34:35;3.67;;;2.00;;
49678;SDS011;35570;48.218;16.326;2024-02-15T04:37:02;4.22;;;2.20;;
49678;SDS011;35570;48.218;16.326;2024-02-15T04:39:34;5.32;;;2.80;;
49678;SDS011;35570;48.218;16.326;2024-02-15T04:42:01;5.45;;;2.58;;
49678;SDS011;35570;48.218;16.326;2024-02-15T04:44:27;4.03;;;3.00;;
49678;SDS011;35570;48.218;16.326;2024-02-15T04:46:53;8.02;;;4.30;;
49678;SDS011;35570;48.218;16.326;2024-02-15T04:49:20;5.53;;;3.20;;
49678;SDS011;35570;48.218;16.326;2024-02-15T04:51:46;6.50;;;2.83;;
49678;SDS011;35570;48.218;16.326;2024-02-15T04:54:12;6.78;;;3.30;;
49678;SDS011;35570;48.218;16.326;2024-02-15T04:56:42;4.80;;;2.80;;
49678;SDS011;35570;48.218;16.326;2024-02-15T04:59:09;4.22;;;2.67;;
49678;SDS011;35570;48.218;16.326;2024-02-15T05:01:37;4.18;;;2.80;;
49678;SDS011;35570;48.218;16.326;2024-02-15T05:04:02;4.68;;;2.80;;
49678;SDS011;35570;48.218;16.326;2024-02-15T05:06:32;3.70;;;2.30;;
49678;SDS011;35570;48.218;16.326;2024-02-15T05:08:58;3.55;;;2.53;;
49678;SDS011;35570;48.218;16.326;2024-02-15T05:14:00;5.18;;;2.45;;
49678;SDS011;35570;48.218;16.326;2024-02-15T05:16:26;5.32;;;2.70;;
49678;SDS011;35570;48.218;16.326;2024-02-15T05:18:52;5.38;;;2.78;;
49678;SDS011;35570;48.218;16.326;2024-02-15T05:21:18;6.22;;;3.65;;
49678;SDS011;35570;48.218;16.326;2024-02-15T05:23:44;5.60;;;3.67;;
49678;SDS011;35570;48.218;16.326;2024-02-15T05:26:11;8.07;;;3.10;;
49678;SDS011;35570;48.218;16.326;2024-02-15T05:28:37;5.07;;;3.28;;
49678;SDS011;35570;48.218;16.326;2024-02-15T05:33:42;5.20;;;2.50;;
49678;SDS011;35570;48.218;16.326;2024-02-15T05:36:18;5.22;;;2.45;;
49678;SDS011;35570;48.218;16.326;2024-02-15T05:38:52;4.05;;;2.30;;
49678;SDS011;35570;48.218;16.326;2024-02-15T05:41:19;3.80;;;2.20;;
49678;SDS011;35570;48.218;16.326;2024-02-15T05:43:45;3.97;;;2.65;;
49678;SDS011;35570;48.218;16.326;2024-02-15T05:46:13;2.75;;;2.05;;
49678;SDS011;35570;48.218;16.326;2024-02-15T05:48:39;3.65;;;2.40;;
49678;SDS011;35570;48.218;16.326;2024-02-15T05:51:06;3.00;;;2.35;;
49678;SDS011;35570;48.218;16.326;2024-02-15T05:53:33;5.60;;;2.58;;
49678;SDS011;35570;48.218;16.326;2024-02-15T05:56:03;4.35;;;2.92;;
49678;SDS011;35570;48.218;16.326;2024-02-15T05:58:33;4.75;;;3.13;;
49678;SDS011;35570;48.218;16.326;2024-02-15T06:00:59;5.70;;;2.90;;
49678;SDS011;35570;48.218;16.326;2024-02-15T06:03:29;4.30;;;3.10;;
49678;SDS011;35570;48.218;16.326;2024-02-15T06:05:58;5.93;;;2.83;;
49678;SDS011;35570;48.218;16.326;2024-02-15T06:08:28;5.00;;;3.30;;
49678;SDS011;35570;48.218;16.326;2024-02-15T06:10:57;5.32;;;3.13;;
49678;SDS011;35570;48.218;16.326;2024-02-15T06:13:23;6.15;;;2.90;;
49678;SDS011;35570;48.218;16.326;2024-02-15T06:15:49;7.00;;;3.60;;
49678;SDS011;35570;48.218;16.326;2024-02-15T06:18:18;8.10;;;3.58;;
49678;SDS011;35570;48.218;16.326;2024-02-15T06:20:46;5.35;;;3.20;;
49678;SDS011;35570;48.218;16.326;2024-02-15T06:23:22;5.00;;;3.40;;
49678;SDS011;35570;48.218;16.326;2024-02-15T06:25:50;5.75;;;3.58;;
49678;SDS011;35570;48.218;16.326;2024-02-15T06:28:18;10.95;;;7.25;;
49678;SDS011;35570;48.218;16.326;2024-02-15T06:31:02;9.50;;;4.20;;
49678;SDS011;35570;48.218;16.326;2024-02-15T06:36:30;6.70;;;3.42;;
49678;SDS011;35570;48.218;16.326;2024-02-15T06:39:14;7.00;;;3.33;;
49678;SDS011;35570;48.218;16.326;2024-02-15T06:41:58;5.65;;;3.40;;
49678;SDS011;35570;48.218;16.326;2024-02-15T06:44:26;6.85;;;3.40;;
49678;SDS011;35570;48.218;16.326;2024-02-15T06:46:52;5.05;;;2.85;;
49678;SDS011;35570;48.218;16.326;2024-02-15T06:49:17;4.32;;;3.00;;
49678;SDS011;35570;48.218;16.326;2024-02-15T06:51:43;5.20;;;3.03;;
49678;SDS011;35570;48.218;16.326;2024-02-15T06:54:12;7.60;;;3.00;;
49678;SDS011;35570;48.218;16.326;2024-02-15T06:56:37;5.55;;;3.15;;
49678;SDS011;35570;48.218;16.326;2024-02-15T06:59:04;7.25;;;2.85;;
49678;SDS011;35570;48.218;16.326;2024-02-15T07:01:30;5.32;;;3.30;;
49678;SDS011;35570;48.218;16.326;2024-02-15T07:03:57;7.70;;;4.05;;
49678;SDS011;35570;48.218;16.326;2024-02-15T07:06:23;8.13;;;3.72;;
49678;SDS011;35570;48.218;16.326;2024-02-15T07:08:48;7.55;;;4.53;;
49678;SDS011;35570;48.218;16.326;2024-02-15T07:11:15;9.35;;;5.50;;
49678;SDS011;35570;48.218;16.326;2024-02-15T07:13:41;8.70;;;5.18;;
49678;SDS011;35570;48.218;16.326;2024-02-15T07:16:07;7.30;;;4.55;;
49678;SDS011;35570;48.218;16.326;2024-02-15T07:18:33;8.50;;;5.43;;
49678;SDS011;35570;48.218;16.326;2024-02-15T07:20:59;7.82;;;4.90;;
49678;SDS011;35570;48.218;16.326;2024-02-15T07:23:26;7.65;;;4.53;;
49678;SDS011;35570;48.218;16.326;2024-02-15T07:25:52;7.93;;;4.50;;
49678;SDS011;35570;48.218;16.326;2024-02-15T07:28:19;7.75;;;4.47;;
49678;SDS011;35570;48.218;16.326;2024-02-15T07:30:45;7.63;;;4.15;;
49678;SDS011;35570;48.218;16.326;2024-02-15T07:33:13;4.93;;;3.40;;
49678;SDS011;35570;48.218;16.326;2024-02-15T07:35:42;6.00;;;3.90;;
49678;SDS011;35570;48.218;16.326;2024-02-15T07:38:08;6.38;;;3.47;;
49678;SDS011;35570;48.218;16.326;2024-02-15T07:40:35;6.45;;;3.35;;
49678;SDS011;35570;48.218;16.326;2024-02-15T07:43:00;6.47;;;4.18;;
49678;SDS011;35570;48.218;16.326;2024-02-15T07:45:28;8.90;;;4.97;;
49678;SDS011;35570;48.218;16.326;2024-02-15T07:47:54;9.70;;;4.82;;
49678;SDS011;35570;48.218;16.326;2024-02-15T07:50:20;6.68;;;5.15;;
49678;SDS011;35570;48.218;16.326;2024-02-15T07:52:47;9.35;;;4.97;;
49678;SDS011;35570;48.218;16.326;2024-02-15T07:55:14;11.48;;;5.60;;
49678;SDS011;35570;48.218;16.326;2024-02-15T07:57:39;15.00;;;5.70;;
49678;SDS011;35570;48.218;16.326;2024-02-15T08:00:06;13.23;;;5.28;;
49678;SDS011;35570;48.218;16.326;2024-02-15T08:02:39;6.70;;;4.10;;
49678;SDS011;35570;48.218;16.326;2024-02-15T08:05:11;5.85;;;3.67;;
49678;SDS011;35570;48.218;16.326;2024-02-15T08:07:38;8.30;;;4.32;;
49678;SDS011;35570;48.218;16.326;2024-02-15T08:10:06;8.02;;;4.95;;
49678;SDS011;35570;48.218;16.326;2024-02-15T08:12:44;8.20;;;5.00;;
49678;SDS011;35570;48.218;16.326;2024-02-15T08:15:11;8.27;;;5.35;;
49678;SDS011;35570;48.218;16.326;2024-02-15T08:17:41;12.70;;;6.15;;
49678;SDS011;35570;48.218;16.326;2024-02-15T08:20:09;11.27;;;6.45;;
49678;SDS011;35570;48.218;16.326;2024-02-15T08:22:36;20.95;;;7.65;;
49678;SDS011;35570;48.218;16.326;2024-02-15T08:25:08;13.40;;;7.28;;
49678;SDS011;35570;48.218;16.326;2024-02-15T08:27:39;10.80;;;6.85;;
49678;SDS011;35570;48.218;16.326;2024-02-15T08:30:11;16.13;;;7.15;;
49678;SDS011;35570;48.218;16.326;2024-02-15T08:32:38;10.55;;;7.07;;
49678;SDS011;35570;48.218;16.326;2024-02-15T08:35:06;9.25;;;6.25;;
49678;SDS011;35570;48.218;16.326;2024-02-15T08:37:33;8.93;;;6.50;;
49678;SDS011;35570;48.218;16.326;2024-02-15T08:40:03;7.82;;;6.00;;
49678;SDS011;35570;48.218;16.326;2024-02-15T08:42:44;12.68;;;7.20;;
49678;SDS011;35570;48.218;16.326;2024-02-15T08:45:11;18.83;;;6.85;;
49678;SDS011;35570;48.218;16.326;2024-02-15T08:47:37;15.00;;;6.72;;
49678;SDS011;35570;48.218;16.326;2024-02-15T08:50:04;11.07;;;5.57;;
49678;SDS011;35570;48.218;16.326;2024-02-15T08:52:31;10.30;;;5.65;;
49678;SDS011;35570;48.218;16.326;2024-02-15T08:54:57;10.40;;;5.50;;
49678;SDS011;35570;48.218;16.326;2024-02-15T08:57:24;10.07;;;5.75;;
49678;SDS011;35570;48.218;16.326;2024-02-15T08:59:50;9.75;;;5.43;;
49678;SDS011;35570;48.218;16.326;2024-02-15T09:02:17;8.65;;;4.80;;
49678;SDS011;35570;48.218;16.326;2024-02-15T09:04:43;10.32;;;5.32;;
49678;SDS011;35570;48.218;16.326;2024-02-15T09:07:09;7.82;;;4.95;;
49678;SDS011;35570;48.218;16.326;2024-02-15T09:09:34;6.63;;;4.88;;
49678;SDS011;35570;48.218;16.326;2024-02-15T09:12:02;7.68;;;4.70;;
49678;SDS011;35570;48.218;16.326;2024-02-15T09:14:33;9.10;;;5.03;;
49678;SDS011;35570;48.218;16.326;2024-02-15T09:17:01;10.70;;;5.13;;
49678;SDS011;35570;48.218;16.326;2024-02-15T09:19:32;10.85;;;5.70;;
49678;SDS011;35570;48.218;16.326;2024-02-15T09:21:59;11.73;;;5.60;;
49678;SDS011;35570;48.218;16.326;2024-02-15T09:24:25;9.48;;;5.40;;
49678;SDS011;35570;48.218;16.326;2024-02-15T09:26:51;9.80;;;6.15;;
49678;SDS011;35570;48.218;16.326;2024-02-15T09:29:17;10.07;;;5.78;;
49678;SDS011;35570;48.218;16.326;2024-02-15T09:31:45;10.50;;;4.72;;
49678;SDS011;35570;48.218;16.326;2024-02-15T09:34:14;9.15;;;4.53;;
49678;SDS011;35570;48.218;16.326;2024-02-15T09:36:39;7.70;;;4.70;;
49678;SDS011;35570;48.218;16.326;2024-02-15T09:39:05;11.38;;;4.82;;
49678;SDS011;35570;48.218;16.326;2024-02-15T09:41:31;7.97;;;5.07;;
49678;SDS011;35570;48.218;16.326;2024-02-15T09:43:58;9.45;;;5.63;;
49678;SDS011;35570;48.218;16.326;2024-02-15T09:46:26;7.97;;;5.32;;
49678;SDS011;35570;48.218;16.326;2024-02-15T09:48:52;9.23;;;6.05;;
49678;SDS011;35570;48.218;16.326;2024-02-15T09:51:24;10.73;;;6.03;;
49678;SDS011;35570;48.218;16.326;2024-02-15T09:53:50;9.45;;;5.55;;
49678;SDS011;35570;48.218;16.326;2024-02-15T09:56:17;12.75;;;5.72;;
49678;SDS011;35570;48.218;16.326;2024-02-15T09:58:43;8.20;;;5.13;;
49678;SDS011;35570;48.218;16.326;2024-02-15T10:01:10;7.35;;;5.20;;
49678;SDS011;35570;48.218;16.326;2024-02-15T10:03:37;10.77;;;5.13;;
49678;SDS011;35570;48.218;16.326;2024-02-15T10:06:05;10.82;;;5.60;;
49678;SDS011;35570;48.218;16.326;2024-02-15T10:08:31;9.50;;;5.60;;
49678;SDS011;35570;48.218;16.326;2024-02-15T10:11:06;10.55;;;5.40;;
49678;SDS011;35570;48.218;16.326;2024-02-15T10:13:33;8.63;;;5.20;;
49678;SDS011;35570;48.218;16.326;2024-02-15T10:15:59;9.48;;;5.47;;
49678;SDS011;35570;48.218;16.326;2024-02-15T10:18:38;9.52;;;5.47;;
49678;SDS011;35570;48.218;16.326;2024-02-15T10:21:04;7.35;;;5.00;;
49678;SDS011;35570;48.218;16.326;2024-02-15T10:23:30;12.65;;;5.82;;
49678;SDS011;35570;48.218;16.326;2024-02-15T10:25:55;10.93;;;5.18;;
49678;SDS011;35570;48.218;16.326;2024-02-15T10:28:23;10.10;;;5.20;;
49678;SDS011;35570;48.218;16.326;2024-02-15T10:30:49;9.15;;;5.50;;
49678;SDS011;35570;48.218;16.326;2024-02-15T10:33:27;11.38;;;5.22;;
49678;SDS011;35570;48.218;16.326;2024-02-15T10:36:09;10.52;;;5.90;;
49678;SDS011;35570;48.218;16.326;2024-02-15T10:38:38;10.60;;;5.32;;
49678;SDS011;35570;48.218;16.326;2024-02-15T10:41:05;8.73;;;4.85;;
49678;SDS011;35570;48.218;16.326;2024-02-15T10:43:34;9.93;;;4.93;;
49678;SDS011;35570;48.218;16.326;2024-02-15T10:46:04;9.73;;;5.55;;
49678;SDS011;35570;48.218;16.326;2024-02-15T10:48:34;7.65;;;3.70;;
49678;SDS011;35570;48.218;16.326;2024-02-15T10:51:00;5.85;;;3.17;;
49678;SDS011;35570;48.218;16.326;2024-02-15T10:53:31;4.60;;;2.88;;
49678;SDS011;35570;48.218;16.326;2024-02-15T10:56:22;7.43;;;3.50;;
49678;SDS011;35570;48.218;16.326;2024-02-15T10:59:17;6.82;;;3.33;;
49678;SDS011;35570;48.218;16.326;2024-02-15T11:04:12;5.82;;;3.45;;
49678;SDS011;35570;48.218;16.326;2024-02-15T11:06:40;6.15;;;3.05;;
49678;SDS011;35570;48.218;16.326;2024-02-15T11:09:09;6.38;;;3.08;;
49678;SDS011;35570;48.218;16.326;2024-02-15T11:11:36;4.82;;;2.80;;
49678;SDS011;35570;48.218;16.326;2024-02-15T11:14:22;5.80;;;2.30;;
49678;SDS011;35570;48.218;16.326;2024-02-15T11:16:53;6.22;;;2.50;;
49678;SDS011;35570;48.218;16.326;2024-02-15T11:22:01;6.63;;;2.22;;
49678;SDS011;35570;48.218;16.326;2024-02-15T11:24:34;4.78;;;2.00;;
49678;SDS011;35570;48.218;16.326;2024-02-15T11:27:03;6.07;;;3.03;;
49678;SDS011;35570;48.218;16.326;2024-02-15T11:29:48;7.38;;;3.35;;
49678;SDS011;35570;48.218;16.326;2024-02-15T11:35:17;3.97;;;2.75;;
49678;SDS011;35570;48.218;16.326;2024-02-15T11:43:09;9.20;;;5.90;;
49678;SDS011;35570;48.218;16.326;2024-02-15T11:45:36;3.55;;;2.60;;
49678;SDS011;35570;48.218;16.326;2024-02-15T11:48:12;3.58;;;2.65;;
49678;SDS011;35570;48.218;16.326;2024-02-15T11:50:39;5.53;;;2.50;;
49678;SDS011;35570;48.218;16.326;2024-02-15T11:53:06;5.82;;;3.05;;
49678;SDS011;35570;48.218;16.326;2024-02-15T11:55:35;2.88;;;2.10;;
49678;SDS011;35570;48.218;16.326;2024-02-15T11:58:03;5.18;;;2.60;;
49678;SDS011;35570;48.218;16.326;2024-02-15T12:00:49;7.18;;;3.05;;
49678;SDS011;35570;48.218;16.326;2024-02-15T12:03:34;5.05;;;2.72;;
49678;SDS011;35570;48.218;16.326;2024-02-15T12:06:18;6.13;;;3.22;;
49678;SDS011;35570;48.218;16.326;2024-02-15T12:09:03;4.93;;;2.90;;
49678;SDS011;35570;48.218;16.326;2024-02-15T12:11:47;3.90;;;2.15;;
49678;SDS011;35570;48.218;16.326;2024-02-15T12:14:40;2.92;;;1.70;;
49678;SDS011;35570;48.218;16.326;2024-02-15T12:17:24;4.30;;;1.80;;
49678;SDS011;35570;48.218;16.326;2024-02-15T12:20:08;3.85;;;1.90;;
49678;SDS011;35570;48.218;16.326;2024-02-15T12:22:42;2.17;;;1.42;;
49678;SDS011;35570;48.218;16.326;2024-02-15T12:25:13;2.58;;;1.70;;
49678;SDS011;35570;48.218;16.326;2024-02-15T12:27:40;6.82;;;1.73;;
49678;SDS011;35570;48.218;16.326;2024-02-15T12:30:08;4.05;;;2.00;;
49678;SDS011;35570;48.218;16.326;2024-02-15T12:32:38;4.15;;;1.98;;
49678;SDS011;35570;48.218;16.326;2024-02-15T12:35:11;4.53;;;1.80;;
49678;SDS011;35570;48.218;16.326;2024-02-15T12:37:41;3.45;;;2.10;;
49678;SDS011;35570;48.218;16.326;2024-02-15T12:40:15;4.65;;;2.60;;
49678;SDS011;35570;48.218;16.326;2024-02-15T12:42:46;5.57;;;2.42;;
49678;SDS011;35570;48.218;16.326;2024-02-15T12:45:15;8.63;;;3.05;;
49678;SDS011;35570;48.218;16.326;2024-02-15T12:50:21;4.43;;;2.35;;
49678;SDS011;35570;48.218;16.326;2024-02-15T12:52:48;4.90;;;2.97;;
49678;SDS011;35570;48.218;16.326;2024-02-15T12:57:47;3.40;;;2.88;;
49678;SDS011;35570;48.218;16.326;2024-02-15T13:00:27;4.68;;;3.40;;
49678;SDS011;35570;48.218;16.326;2024-02-15T13:03:01;5.35;;;3.72;;
49678;SDS011;35570;48.218;16.326;2024-02-15T13:05:28;6.28;;;3.20;;
49678;SDS011;35570;48.218;16.326;2024-02-15T13:07:55;4.60;;;3.47;;
49678;SDS011;35570;48.218;16.326;2024-02-15T13:10:23;6.00;;;3.88;;
49678;SDS011;35570;48.218;16.326;2024-02-15T13:12:51;6.80;;;3.63;;
49678;SDS011;35570;48.218;16.326;2024-02-15T13:15:18;5.10;;;3.45;;
49678;SDS011;35570;48.218;16.326;2024-02-15T13:17:47;6.38;;;3.85;;
49678;SDS011;35570;48.218;16.326;2024-02-15T13:20:16;6.80;;;3.65;;
49678;SDS011;35570;48.218;16.326;2024-02-15T13:22:45;6.05;;;3.25;;
49678;SDS011;35570;48.218;16.326;2024-02-15T13:25:13;4.60;;;3.35;;
49678;SDS011;35570;48.218;16.326;2024-02-15T13:27:41;5.03;;;3.47;;
49678;SDS011;35570;48.218;16.326;2024-02-15T13:30:08;6.20;;;3.85;;
49678;SDS011;35570;48.218;16.326;2024-02-15T13:32:38;5.90;;;4.03;;
49678;SDS011;35570;48.218;16.326;2024-02-15T13:35:06;6.55;;;3.75;;
49678;SDS011;35570;48.218;16.326;2024-02-15T13:37:47;5.22;;;3.90;;
49678;SDS011;35570;48.218;16.326;2024-02-15T13:40:13;6.95;;;4.13;;
49678;SDS011;35570;48.218;16.326;2024-02-15T13:42:45;4.68;;;3.67;;
49678;SDS011;35570;48.218;16.326;2024-02-15T13:45:17;5.97;;;3.50;;
49678;SDS011;35570;48.218;16.326;2024-02-15T13:47:55;6.65;;;3.63;;
49678;SDS011;35570;48.218;16.326;2024-02-15T13:50:21;7.55;;;3.85;;
49678;SDS011;35570;48.218;16.326;2024-02-15T13:52:48;8.90;;;3.80;;
49678;SDS011;35570;48.218;16.326;2024-02-15T13:55:18;4.47;;;3.42;;
49678;SDS011;35570;48.218;16.326;2024-02-15T13:57:45;4.93;;;3.67;;
49678;SDS011;35570;48.218;16.326;2024-02-15T14:00:15;7.85;;;3.60;;
49678;SDS011;35570;48.218;16.326;2024-02-15T14:05:17;4.03;;;2.97;;
49678;SDS011;35570;48.218;16.326;2024-02-15T14:07:45;5.43;;;2.80;;
49678;SDS011;35570;48.218;16.326;2024-02-15T14:10:12;6.60;;;3.55;;
49678;SDS011;35570;48.218;16.326;2024-02-15T14:12:38;7.00;;;4.30;;
49678;SDS011;35570;48.218;16.326;2024-02-15T14:15:04;6.38;;;4.07;;
49678;SDS011;35570;48.218;16.326;2024-02-15T14:17:31;6.10;;;3.97;;
49678;SDS011;35570;48.218;16.326;2024-02-15T14:19:57;8.50;;;4.20;;
49678;SDS011;35570;48.218;16.326;2024-02-15T14:22:23;5.85;;;4.00;;
49678;SDS011;35570;48.218;16.326;2024-02-15T14:24:53;8.38;;;3.95;;
49678;SDS011;35570;48.218;16.326;2024-02-15T14:27:18;6.88;;;3.78;;
49678;SDS011;35570;48.218;16.326;2024-02-15T14:29:44;7.53;;;3.85;;
49678;SDS011;35570;48.218;16.326;2024-02-15T14:32:30;6.63;;;4.00;;
49678;SDS011;35570;48.218;16.326;2024-02-15T14:35:14;6.97;;;4.18;;
49678;SDS011;35570;48.218;16.326;2024-02-15T14:37:41;6.45;;;4.32;;
49678;SDS011;35570;48.218;16.326;2024-02-15T14:40:08;6.45;;;3.83;;
49678;SDS011;35570;48.218;16.326;2024-02-15T14:42:34;8.23;;;3.90;;
49678;SDS011;35570;48.218;16.326;2024-02-15T14:45:01;9.77;;;3.97;;
49678;SDS011;35570;48.218;16.326;2024-02-15T14:47:26;7.38;;;4.22;;
49678;SDS011;35570;48.218;16.326;2024-02-15T14:49:52;7.63;;;3.63;;
49678;SDS011;35570;48.218;16.326;2024-02-15T14:52:18;6.60;;;3.30;;
49678;SDS011;35570;48.218;16.326;2024-02-15T14:54:43;6.28;;;3.30;;
49678;SDS011;35570;48.218;16.326;2024-02-15T14:57:09;9.68;;;3.35;;
49678;SDS011;35570;48.218;16.326;2024-02-15T14:59:34;5.70;;;3.70;;
49678;SDS011;35570;48.218;16.326;2024-02-15T15:02:02;7.90;;;4.28;;
49678;SDS011;35570;48.218;16.326;2024-02-15T15:04:33;13.73;;;9.68;;
49678;SDS011;35570;48.218;16.326;2024-02-15T15:07:12;9.13;;;4.97;;
49678;SDS011;35570;48.218;16.326;2024-02-15T15:10:13;9.82;;;4.35;;